createdAt,value
2023-04-15T00:01:11.739Z,13.80
2023-04-15T00:03:38.822Z,13.90
2023-04-15T00:06:06.177Z,13.80
2023-04-15T00:08:33.291Z,13.90
2023-04-15T00:11:03.028Z,13.90
2023-04-15T00:13:30.037Z,13.90
2023-04-15T00:15:56.686Z,13.90
2023-04-15T00:18:24.818Z,13.90
2023-04-15T00:20:52.574Z,13.80
2023-04-15T00:23:19.475Z,13.80
2023-04-15T00:25:46.994Z,13.80
2023-04-15T00:28:13.926Z,13.80
2023-04-15T00:30:40.698Z,13.70
2023-04-15T00:33:07.913Z,13.70
2023-04-15T00:35:37.494Z,13.70
2023-04-15T00:38:05.728Z,13.60
2023-04-15T00:40:32.552Z,13.40
2023-04-15T00:42:59.311Z,13.40
2023-04-15T00:45:26.177Z,13.50
2023-04-15T00:47:53.031Z,13.40
2023-04-15T00:50:20.053Z,13.40
2023-04-15T00:52:46.813Z,13.20
2023-04-15T00:55:13.968Z,12.90
2023-04-15T00:57:41.284Z,12.70
2023-04-15T01:00:09.760Z,12.60
2023-04-15T01:02:37.128Z,12.50
2023-04-15T01:05:04.912Z,12.50
2023-04-15T01:07:32.109Z,12.60
2023-04-15T01:09:59.236Z,12.40
2023-04-15T01:12:27.587Z,12.50
2023-04-15T01:14:56.270Z,12.40
2023-04-15T01:17:24.843Z,12.40
2023-04-15T01:19:52.840Z,12.40
2023-04-15T01:22:19.763Z,12.60
2023-04-15T01:25:06.406Z,12.60
2023-04-15T01:27:35.287Z,12.60
2023-04-15T01:30:05.266Z,12.60
2023-04-15T01:32:32.158Z,12.70
2023-04-15T01:34:58.958Z,12.80
2023-04-15T01:37:26.348Z,12.80
2023-04-15T01:39:53.081Z,12.80
2023-04-15T01:42:21.840Z,12.80
2023-04-15T01:44:48.613Z,12.70
2023-04-15T01:47:15.441Z,12.70
2023-04-15T01:49:42.058Z,12.60
2023-04-15T01:52:09.222Z,12.60
2023-04-15T01:54:36.118Z,12.60
2023-04-15T01:57:03.607Z,12.60
2023-04-15T01:59:31.921Z,12.60
2023-04-15T02:01:59.104Z,12.60
2023-04-15T02:04:26.742Z,12.60
2023-04-15T02:06:53.790Z,12.50
2023-04-15T02:09:20.656Z,12.40
2023-04-15T02:11:47.420Z,12.10
2023-04-15T02:14:14.439Z,12.00
2023-04-15T02:16:41.352Z,12.10
2023-04-15T02:19:08.920Z,12.10
2023-04-15T02:21:35.746Z,12.20
2023-04-15T02:24:02.607Z,12.00
2023-04-15T02:26:32.161Z,12.10
2023-04-15T02:28:59.528Z,12.10
2023-04-15T02:31:26.774Z,11.90
2023-04-15T02:33:53.540Z,12.20
2023-04-15T02:36:21.340Z,12.10
2023-04-15T02:38:48.159Z,12.10
2023-04-15T02:41:14.905Z,12.00
2023-04-15T02:43:41.636Z,12.00
2023-04-15T02:46:08.543Z,11.90
2023-04-15T02:48:35.352Z,11.70
2023-04-15T02:51:16.760Z,11.80
2023-04-15T02:53:47.338Z,11.70
2023-04-15T02:56:15.878Z,11.70
2023-04-15T02:58:43.596Z,11.70
2023-04-15T03:01:10.499Z,11.60
2023-04-15T03:03:37.329Z,11.70
2023-04-15T03:06:04.099Z,11.80
2023-04-15T03:08:30.955Z,11.70
2023-04-15T03:11:00.696Z,11.70
2023-04-15T03:13:27.534Z,11.70
2023-04-15T03:15:54.451Z,11.50
2023-04-15T03:18:21.534Z,11.20
2023-04-15T03:20:48.289Z,11.20
2023-04-15T03:23:15.424Z,11.10
2023-04-15T03:25:42.315Z,11.10
2023-04-15T03:28:08.904Z,11.30
2023-04-15T03:30:35.994Z,11.20
2023-04-15T03:33:02.868Z,11.20
2023-04-15T03:35:29.803Z,11.30
2023-04-15T03:37:56.576Z,11.20
2023-04-15T03:40:23.373Z,11.10
2023-04-15T03:42:50.187Z,11.00
2023-04-15T03:45:17.041Z,11.00
2023-04-15T03:47:44.096Z,10.90
2023-04-15T03:50:11.195Z,11.00
2023-04-15T03:52:38.149Z,10.90
2023-04-15T03:55:05.227Z,10.90
2023-04-15T03:57:32.048Z,10.90
2023-04-15T03:59:58.842Z,10.90
2023-04-15T04:02:25.988Z,11.00
2023-04-15T04:04:52.937Z,11.00
2023-04-15T04:07:19.758Z,11.10
2023-04-15T04:09:47.465Z,11.10
2023-04-15T04:12:14.435Z,11.10
2023-04-15T04:14:41.110Z,11.10
2023-04-15T04:17:08.466Z,11.10
2023-04-15T04:19:35.769Z,0.00
2023-04-15T04:22:02.641Z,11.00
2023-04-15T04:24:29.479Z,11.00
2023-04-15T04:26:57.187Z,10.90
2023-04-15T04:29:24.218Z,10.90
2023-04-15T04:31:51.169Z,0.00
2023-04-15T04:34:18.076Z,10.80
2023-04-15T04:36:44.825Z,10.90
2023-04-15T04:39:11.525Z,10.80
2023-04-15T04:41:38.309Z,10.80
2023-04-15T04:44:05.097Z,10.80
2023-04-15T04:46:31.870Z,10.70
2023-04-15T04:48:58.726Z,10.70
2023-04-15T04:51:26.177Z,10.70
2023-04-15T04:53:53.073Z,10.80
2023-04-15T04:56:19.722Z,10.80
2023-04-15T04:58:46.824Z,10.80
2023-04-15T05:01:13.718Z,10.70
2023-04-15T05:03:40.685Z,10.70
2023-04-15T05:06:08.884Z,0.00
2023-04-15T05:08:36.731Z,10.50
2023-04-15T05:11:04.446Z,10.50
2023-04-15T05:13:31.640Z,10.40
2023-04-15T05:15:58.489Z,10.40
2023-04-15T05:18:25.511Z,10.40
2023-04-15T05:20:52.317Z,10.50
2023-04-15T05:23:19.719Z,10.60
2023-04-15T05:25:46.808Z,10.60
2023-04-15T05:28:13.628Z,10.60
2023-04-15T05:30:40.596Z,10.60
2023-04-15T05:33:07.258Z,10.70
2023-04-15T05:35:34.073Z,10.70
2023-04-15T05:38:01.093Z,10.80
2023-04-15T05:40:28.256Z,10.70
2023-04-15T05:42:55.139Z,10.70
2023-04-15T05:45:21.918Z,10.70
2023-04-15T05:47:50.962Z,10.70
2023-04-15T05:50:17.859Z,10.70
2023-04-15T05:52:45.800Z,10.80
2023-04-15T05:55:12.769Z,10.90
2023-04-15T05:57:39.460Z,11.00
2023-04-15T06:00:06.823Z,11.10
2023-04-15T06:02:33.696Z,11.20
2023-04-15T06:05:01.064Z,11.30
2023-04-15T06:07:27.973Z,11.30
2023-04-15T06:09:54.738Z,11.40
2023-04-15T06:12:21.995Z,11.40
2023-04-15T06:14:48.787Z,11.50
2023-04-15T06:17:18.370Z,11.60
2023-04-15T06:19:45.252Z,11.70
2023-04-15T06:22:12.083Z,11.80
2023-04-15T06:24:38.761Z,11.70
2023-04-15T06:27:05.488Z,11.80
2023-04-15T06:29:32.219Z,11.90
2023-04-15T06:31:58.992Z,11.90
2023-04-15T06:34:25.819Z,12.10
2023-04-15T06:36:52.584Z,12.20
2023-04-15T06:39:19.350Z,12.10
2023-04-15T06:41:46.264Z,12.30
2023-04-15T06:44:12.906Z,12.40
2023-04-15T06:46:39.866Z,12.40
2023-04-15T06:49:06.686Z,12.50
2023-04-15T06:51:35.877Z,12.60
2023-04-15T06:54:05.834Z,12.70
2023-04-15T06:56:33.512Z,12.70
2023-04-15T06:59:00.887Z,12.80
2023-04-15T07:01:28.269Z,12.80
2023-04-15T07:03:55.304Z,12.90
2023-04-15T07:06:22.212Z,12.80
2023-04-15T07:08:48.954Z,12.90
2023-04-15T07:11:15.748Z,12.90
2023-04-15T07:13:42.477Z,13.00
2023-04-15T07:16:09.412Z,13.10
2023-04-15T07:18:36.166Z,13.20
2023-04-15T07:21:03.085Z,13.30
2023-04-15T07:23:29.956Z,13.30
2023-04-15T07:25:57.411Z,13.40
2023-04-15T07:28:24.262Z,13.40
2023-04-15T07:30:51.118Z,13.50
2023-04-15T07:33:18.010Z,13.50
2023-04-15T07:35:45.374Z,13.70
2023-04-15T07:38:14.862Z,13.60
2023-04-15T07:40:42.871Z,13.70
2023-04-15T07:43:09.965Z,13.80
2023-04-15T07:45:36.849Z,13.90
2023-04-15T07:48:03.900Z,13.90
2023-04-15T07:50:30.685Z,13.90
2023-04-15T07:52:57.737Z,13.90
2023-04-15T07:55:26.138Z,14.10
2023-04-15T07:57:53.473Z,14.00
2023-04-15T08:00:20.256Z,14.10
2023-04-15T08:02:48.440Z,14.20
2023-04-15T08:05:15.900Z,14.20
2023-04-15T08:07:42.688Z,14.30
2023-04-15T08:10:10.011Z,14.30
2023-04-15T08:12:37.151Z,14.40
2023-04-15T08:15:04.644Z,14.40
2023-04-15T08:17:31.459Z,14.40
2023-04-15T08:19:58.124Z,14.50
2023-04-15T08:22:25.004Z,14.60
2023-04-15T08:24:52.062Z,14.60
2023-04-15T08:27:19.159Z,14.60
2023-04-15T08:29:45.937Z,14.60
2023-04-15T08:32:12.580Z,14.60
2023-04-15T08:34:39.392Z,14.70
2023-04-15T08:37:07.022Z,14.70
2023-04-15T08:39:33.762Z,14.80
2023-04-15T08:42:02.680Z,14.70
2023-04-15T08:44:32.064Z,14.80
2023-04-15T08:47:02.897Z,14.70
2023-04-15T08:49:30.600Z,14.70
2023-04-15T08:51:59.697Z,14.80
2023-04-15T08:54:28.064Z,14.80
2023-04-15T08:56:55.317Z,15.00
2023-04-15T08:59:22.323Z,15.00
2023-04-15T09:01:51.384Z,15.10
2023-04-15T09:04:18.853Z,15.10
2023-04-15T09:06:45.637Z,15.10
2023-04-15T09:09:13.087Z,15.20
2023-04-15T09:11:40.404Z,15.30
2023-04-15T09:14:07.128Z,15.40
2023-04-15T09:16:53.793Z,15.40
2023-04-15T09:19:22.880Z,15.40
2023-04-15T09:21:51.778Z,15.50
2023-04-15T09:24:18.743Z,15.60
2023-04-15T09:26:45.475Z,15.60
2023-04-15T09:29:15.348Z,15.60
2023-04-15T09:31:43.516Z,15.60
2023-04-15T09:34:10.682Z,15.70
2023-04-15T09:36:57.943Z,15.70
2023-04-15T09:39:24.734Z,15.80
2023-04-15T09:42:08.195Z,15.70
2023-04-15T09:44:35.235Z,15.70
2023-04-15T09:47:02.294Z,15.70
2023-04-15T09:49:29.333Z,15.90
2023-04-15T09:52:06.330Z,15.90
2023-04-15T09:54:37.560Z,16.00
2023-04-15T09:57:08.599Z,16.10
2023-04-15T09:59:35.641Z,16.20
2023-04-15T10:02:06.237Z,16.20
2023-04-15T10:04:36.777Z,16.30
2023-04-15T10:07:05.310Z,16.40
2023-04-15T10:09:33.649Z,16.40
2023-04-15T10:12:01.158Z,16.40
2023-04-15T10:14:29.987Z,16.40
2023-04-15T10:16:59.988Z,16.40
2023-04-15T10:19:30.528Z,16.50
2023-04-15T10:21:58.510Z,16.50
2023-04-15T10:24:26.190Z,16.70
2023-04-15T10:26:53.789Z,16.70
2023-04-15T10:29:20.887Z,16.80
2023-04-15T10:31:48.766Z,16.80
2023-04-15T10:34:16.284Z,16.80
2023-04-15T10:36:43.206Z,16.80
2023-04-15T10:39:39.026Z,16.80
2023-04-15T10:42:16.654Z,16.90
2023-04-15T10:44:51.565Z,17.00
2023-04-15T10:47:21.371Z,17.00
2023-04-15T10:49:57.920Z,17.00
2023-04-15T10:52:27.548Z,17.00
2023-04-15T10:55:19.348Z,17.00
2023-04-15T10:57:46.151Z,17.10
2023-04-15T11:00:18.065Z,17.10
2023-04-15T11:02:45.050Z,17.30
2023-04-15T11:05:13.031Z,17.20
2023-04-15T11:07:52.017Z,17.20
2023-04-15T11:10:19.025Z,17.30
2023-04-15T11:12:46.577Z,17.20
2023-04-15T11:15:37.697Z,17.30
2023-04-15T11:18:19.856Z,17.40
2023-04-15T11:20:59.167Z,17.40
2023-04-15T11:23:35.989Z,0.00
2023-04-15T11:26:09.838Z,17.60
2023-04-15T11:28:38.804Z,17.50
2023-04-15T11:31:11.375Z,17.60
2023-04-15T11:33:44.560Z,17.70
2023-04-15T11:36:11.273Z,17.70
2023-04-15T11:38:42.370Z,17.80
2023-04-15T11:41:09.236Z,17.80
2023-04-15T11:43:35.995Z,17.80
2023-04-15T11:46:03.753Z,17.90
2023-04-15T11:48:35.762Z,17.90
2023-04-15T11:51:04.635Z,18.00
2023-04-15T11:53:51.105Z,18.00
2023-04-15T11:56:18.951Z,18.00
2023-04-15T11:58:46.623Z,18.10
2023-04-15T12:01:13.933Z,18.10
2023-04-15T12:03:45.529Z,18.20
2023-04-15T12:06:23.517Z,18.30
2023-04-15T12:08:53.147Z,18.40
2023-04-15T12:11:40.974Z,18.50
2023-04-15T12:14:11.679Z,18.50
2023-04-15T12:16:58.671Z,18.40
2023-04-15T12:19:28.858Z,18.40
2023-04-15T12:22:01.220Z,18.50
2023-04-15T12:24:31.112Z,18.40
2023-04-15T12:27:01.864Z,18.40
2023-04-15T12:29:29.884Z,18.50
2023-04-15T12:31:57.745Z,18.50
2023-04-15T12:34:33.310Z,18.70
2023-04-15T12:37:02.426Z,18.70
2023-04-15T12:39:32.558Z,18.80
2023-04-15T12:42:00.521Z,18.90
2023-04-15T12:44:28.540Z,18.90
2023-04-15T12:46:56.691Z,18.90
2023-04-15T12:49:24.362Z,19.00
2023-04-15T12:51:53.272Z,19.00
2023-04-15T12:54:20.541Z,19.10
2023-04-15T12:56:48.354Z,19.10
2023-04-15T12:59:16.248Z,19.10
2023-04-15T13:01:43.162Z,19.10
2023-04-15T13:04:10.136Z,19.10
2023-04-15T13:06:38.422Z,19.20
2023-04-15T13:09:06.134Z,19.10
2023-04-15T13:11:33.958Z,19.20
2023-04-15T13:14:08.437Z,19.00
2023-04-15T13:16:36.166Z,18.90
2023-04-15T13:19:04.157Z,18.90
2023-04-15T13:21:34.968Z,18.90
2023-04-15T13:24:02.226Z,19.00
2023-04-15T13:26:29.150Z,18.90
2023-04-15T13:28:56.324Z,18.90
2023-04-15T13:31:23.120Z,18.90
2023-04-15T13:33:49.999Z,18.90
2023-04-15T13:36:16.782Z,18.80
2023-04-15T13:38:43.531Z,18.80
2023-04-15T13:41:10.544Z,18.70
2023-04-15T13:43:37.542Z,18.70
2023-04-15T13:46:04.433Z,18.70
2023-04-15T13:48:31.603Z,18.70
2023-04-15T13:50:58.445Z,18.70
2023-04-15T13:53:33.971Z,18.80
2023-04-15T13:56:09.412Z,18.80
2023-04-15T13:58:37.298Z,18.70
2023-04-15T14:01:06.171Z,18.70
2023-04-15T14:03:37.412Z,18.70
2023-04-15T14:06:05.904Z,0.00
2023-04-15T14:08:32.971Z,18.80
2023-04-15T14:10:59.740Z,18.80
2023-04-15T14:13:26.445Z,18.80
2023-04-15T14:15:53.199Z,18.90
2023-04-15T14:18:20.251Z,18.80
2023-04-15T14:20:46.984Z,18.80
2023-04-15T14:23:13.844Z,18.80
2023-04-15T14:25:40.701Z,18.80
2023-04-15T14:28:07.475Z,18.80
2023-04-15T14:30:34.330Z,18.80
2023-04-15T14:33:01.535Z,18.90
2023-04-15T14:35:28.644Z,18.80
2023-04-15T14:37:55.844Z,18.90
2023-04-15T14:40:22.772Z,18.80
2023-04-15T14:42:49.535Z,18.80
2023-04-15T14:45:16.604Z,18.80
2023-04-15T14:47:43.739Z,18.90
2023-04-15T14:50:13.688Z,18.80
2023-04-15T14:52:40.513Z,18.80
2023-04-15T14:55:12.175Z,18.80
2023-04-15T14:57:40.623Z,18.80
2023-04-15T15:00:09.897Z,18.70
2023-04-15T15:02:39.820Z,18.70
2023-04-15T15:05:07.324Z,18.70
2023-04-15T15:07:34.411Z,18.60
2023-04-15T15:10:01.235Z,18.60
2023-04-15T15:12:28.047Z,18.40
2023-04-15T15:14:56.043Z,18.30
2023-04-15T15:17:23.170Z,18.30
2023-04-15T15:19:49.909Z,18.40
2023-04-15T15:22:18.077Z,18.30
2023-04-15T15:24:46.339Z,18.20
2023-04-15T15:27:13.114Z,18.20
2023-04-15T15:29:39.953Z,18.20
2023-04-15T15:32:07.243Z,18.10
2023-04-15T15:34:34.076Z,18.10
2023-04-15T15:37:01.186Z,18.10
2023-04-15T15:39:28.113Z,18.00
2023-04-15T15:41:55.132Z,18.00
2023-04-15T15:44:22.015Z,18.00
2023-04-15T15:46:50.456Z,18.00
2023-04-15T15:49:17.431Z,17.90
2023-04-15T15:51:45.759Z,18.00
2023-04-15T15:54:12.943Z,17.90
2023-04-15T15:56:39.748Z,17.90
2023-04-15T15:59:06.791Z,17.50
2023-04-15T16:01:33.800Z,17.60
2023-04-15T16:04:01.061Z,17.40
2023-04-15T16:06:28.524Z,17.40
2023-04-15T16:08:55.320Z,17.40
2023-04-15T16:11:22.116Z,17.40
2023-04-15T16:13:48.924Z,17.30
2023-04-15T16:16:15.792Z,17.30
2023-04-15T16:18:42.631Z,17.30
2023-04-15T16:21:09.483Z,17.30
2023-04-15T16:23:37.095Z,17.40
2023-04-15T16:26:03.977Z,17.40
2023-04-15T16:28:30.881Z,17.30
2023-04-15T16:30:57.679Z,17.40
2023-04-15T16:33:24.635Z,17.30
2023-04-15T16:35:51.539Z,17.30
2023-04-15T16:38:18.704Z,17.20
2023-04-15T16:40:45.751Z,17.30
2023-04-15T16:43:12.651Z,17.20
2023-04-15T16:45:39.735Z,17.20
2023-04-15T16:48:07.301Z,17.20
2023-04-15T16:50:34.178Z,17.10
2023-04-15T16:53:01.533Z,17.00
2023-04-15T16:55:28.690Z,17.00
2023-04-15T16:58:01.772Z,17.00
2023-04-15T17:00:31.197Z,16.90
2023-04-15T17:02:58.948Z,16.90
2023-04-15T17:05:27.460Z,16.90
2023-04-15T17:07:54.846Z,16.90
2023-04-15T17:10:21.682Z,16.80
2023-04-15T17:12:49.783Z,16.80
2023-04-15T17:15:16.578Z,16.90
2023-04-15T17:17:43.362Z,16.80
2023-04-15T17:20:11.133Z,16.80
2023-04-15T17:22:38.132Z,16.90
2023-04-15T17:25:05.493Z,16.90
2023-04-15T17:27:32.331Z,16.80
2023-04-15T17:29:59.126Z,16.90
2023-04-15T17:32:31.846Z,16.90
2023-04-15T17:34:58.943Z,16.80
2023-04-15T17:37:25.738Z,16.80
2023-04-15T17:39:52.955Z,16.70
2023-04-15T17:42:19.838Z,16.50
2023-04-15T17:44:46.558Z,16.60
2023-04-15T17:47:13.402Z,16.40
2023-04-15T17:49:40.169Z,16.40
2023-04-15T17:52:06.890Z,16.40
2023-04-15T17:54:34.014Z,16.50
2023-04-15T17:57:03.124Z,16.30
2023-04-15T17:59:30.133Z,16.20
2023-04-15T18:01:58.779Z,16.20
2023-04-15T18:04:26.875Z,16.10
2023-04-15T18:06:54.141Z,16.10
2023-04-15T18:09:20.972Z,16.20
2023-04-15T18:11:48.893Z,16.10
2023-04-15T18:14:26.985Z,16.10
2023-04-15T18:17:00.749Z,16.00
2023-04-15T18:19:27.727Z,16.10
2023-04-15T18:21:54.460Z,16.00
2023-04-15T18:24:21.105Z,15.90
2023-04-15T18:26:49.159Z,15.90
2023-04-15T18:29:16.508Z,15.90
2023-04-15T18:31:43.494Z,15.80
2023-04-15T18:34:10.618Z,15.70
2023-04-15T18:36:37.405Z,15.80
2023-04-15T18:39:04.606Z,15.60
2023-04-15T18:41:31.638Z,15.60
2023-04-15T18:43:58.307Z,15.50
2023-04-15T18:46:25.325Z,15.60
2023-04-15T18:48:52.124Z,15.60
2023-04-15T18:51:19.011Z,15.60
2023-04-15T18:53:45.944Z,15.50
2023-04-15T18:56:12.758Z,15.40
2023-04-15T18:59:25.703Z,15.30
2023-04-15T19:01:26.437Z,15.30
2023-04-15T19:03:53.335Z,0.00
2023-04-15T19:06:20.533Z,15.30
2023-04-15T19:08:47.380Z,15.30
2023-04-15T19:11:14.432Z,15.20
2023-04-15T19:13:41.240Z,15.30
2023-04-15T19:16:10.464Z,15.30
2023-04-15T19:18:37.237Z,15.10
2023-04-15T19:21:04.086Z,15.10
2023-04-15T19:23:31.854Z,15.10
2023-04-15T19:25:58.856Z,15.10
2023-04-15T19:28:28.149Z,15.10
2023-04-15T19:30:55.157Z,15.10
2023-04-15T19:33:21.962Z,15.10
2023-04-15T19:35:50.060Z,15.20
2023-04-15T19:38:17.319Z,15.10
2023-04-15T19:40:44.273Z,15.10
2023-04-15T19:43:11.065Z,14.90
2023-04-15T19:45:37.729Z,0.00
2023-04-15T19:48:06.160Z,14.90
2023-04-15T19:50:33.119Z,14.80
2023-04-15T19:52:59.973Z,14.90
2023-04-15T19:55:26.750Z,14.90
2023-04-15T19:57:53.492Z,14.80
2023-04-15T20:00:20.793Z,14.80
2023-04-15T20:02:47.775Z,14.80
2023-04-15T20:05:14.738Z,14.80
2023-04-15T20:07:42.551Z,14.80
2023-04-15T20:10:13.035Z,14.90
2023-04-15T20:12:51.327Z,14.90
2023-04-15T20:15:19.802Z,14.90
2023-04-15T20:17:46.678Z,14.80
2023-04-15T20:20:13.572Z,14.70
2023-04-15T20:22:41.112Z,0.00
2023-04-15T20:25:08.544Z,14.80
2023-04-15T20:27:35.475Z,14.80
2023-04-15T20:30:04.398Z,14.80
2023-04-15T20:32:38.628Z,14.80
2023-04-15T20:35:06.982Z,14.80
2023-04-15T20:37:34.038Z,14.70
2023-04-15T20:40:01.741Z,14.70
2023-04-15T20:42:33.552Z,14.80
2023-04-15T20:45:00.492Z,14.80
2023-04-15T20:47:27.365Z,14.70
2023-04-15T20:49:54.013Z,14.70
2023-04-15T20:52:20.842Z,14.80
2023-04-15T20:54:47.465Z,14.60
2023-04-15T20:57:14.269Z,14.70
2023-04-15T20:59:41.126Z,14.70
2023-04-15T21:02:07.980Z,14.70
2023-04-15T21:04:34.846Z,14.70
2023-04-15T21:07:01.719Z,14.70
2023-04-15T21:09:28.653Z,14.70
2023-04-15T21:12:00.374Z,14.80
2023-04-15T21:14:28.472Z,14.70
2023-04-15T21:16:56.443Z,14.60
2023-04-15T21:19:23.214Z,14.70
2023-04-15T21:21:49.877Z,14.60
2023-04-15T21:24:16.681Z,14.60
2023-04-15T21:26:43.388Z,14.60
2023-04-15T21:29:11.707Z,14.60
2023-04-15T21:31:39.112Z,14.60
2023-04-15T21:34:06.081Z,14.60
2023-04-15T21:36:33.887Z,14.60
2023-04-15T21:39:01.062Z,14.60
2023-04-15T21:41:28.155Z,14.50
2023-04-15T21:43:55.039Z,14.50
2023-04-15T21:46:25.404Z,14.50
2023-04-15T21:48:54.132Z,14.60
2023-04-15T21:51:20.966Z,14.50
2023-04-15T21:53:47.787Z,14.60
2023-04-15T21:56:14.630Z,14.50
2023-04-15T21:58:41.445Z,14.60
2023-04-15T22:01:08.286Z,14.60
2023-04-15T22:03:35.677Z,14.60
2023-04-15T22:06:03.647Z,14.60
2023-04-15T22:08:38.735Z,14.50
2023-04-15T22:11:28.662Z,14.50
2023-04-15T22:13:59.388Z,14.50
2023-04-15T22:16:27.232Z,14.50
2023-04-15T22:18:54.954Z,14.50
2023-04-15T22:21:21.974Z,14.40
2023-04-15T22:23:49.382Z,14.40
2023-04-15T22:26:16.405Z,14.40
2023-04-15T22:28:43.796Z,14.40
2023-04-15T22:31:10.879Z,14.40
2023-04-15T22:33:38.736Z,14.40
2023-04-15T22:36:06.022Z,0.00
2023-04-15T22:38:32.956Z,14.40
2023-04-15T22:40:59.780Z,14.40
2023-04-15T22:43:27.406Z,14.40
2023-04-15T22:45:54.982Z,14.30
2023-04-15T22:48:22.113Z,14.30
2023-04-15T22:50:49.376Z,14.30
2023-04-15T22:53:17.451Z,14.30
2023-04-15T22:55:48.272Z,14.30
2023-04-15T22:58:15.830Z,14.30
2023-04-15T23:00:42.711Z,14.30
2023-04-15T23:03:09.881Z,14.30
2023-04-15T23:05:37.309Z,14.30
2023-04-15T23:08:04.042Z,14.30
2023-04-15T23:10:30.696Z,14.30
2023-04-15T23:12:57.454Z,14.30
2023-04-15T23:15:24.253Z,14.40
2023-04-15T23:17:51.210Z,14.30
2023-04-15T23:20:18.059Z,14.30
2023-04-15T23:22:45.364Z,14.40
2023-04-15T23:25:12.105Z,14.50
2023-04-15T23:27:38.737Z,14.30
2023-04-15T23:30:06.262Z,14.30
2023-04-15T23:32:33.109Z,14.30
2023-04-15T23:34:59.919Z,14.30
2023-04-15T23:37:26.572Z,14.20
2023-04-15T23:39:53.301Z,14.10
2023-04-15T23:42:19.977Z,14.10
2023-04-15T23:44:46.779Z,14.10
2023-04-15T23:47:13.590Z,14.10
2023-04-15T23:49:41.014Z,14.10
2023-04-15T23:52:08.002Z,14.10
2023-04-15T23:54:35.093Z,14.10
2023-04-15T23:57:03.494Z,14.10
2023-04-15T23:59:30.306Z,14.10
